createdAt,value
2024-03-08T00:00:03.078Z,92.35
2024-03-08T00:01:02.971Z,92.35
2024-03-08T00:02:03.002Z,92.45
2024-03-08T00:03:03.198Z,92.35
2024-03-08T00:04:02.963Z,92.49
2024-03-08T00:05:02.927Z,92.60
2024-03-08T00:06:02.972Z,92.60
2024-03-08T00:07:02.913Z,92.60
2024-03-08T00:08:02.889Z,92.60
2024-03-08T00:09:02.934Z,92.60
2024-03-08T00:10:02.889Z,92.70
2024-03-08T00:11:09.173Z,92.60
2024-03-08T00:12:02.843Z,92.49
2024-03-08T00:13:02.834Z,92.49
2024-03-08T00:14:02.815Z,92.70
2024-03-08T00:15:02.911Z,92.60
2024-03-08T00:16:02.797Z,92.49
2024-03-08T00:17:02.803Z,92.39
2024-03-08T00:18:02.889Z,92.29
2024-03-08T00:19:02.795Z,92.39
2024-03-08T00:20:02.740Z,92.29
2024-03-08T00:21:02.931Z,92.29
2024-03-08T00:22:02.740Z,92.29
2024-03-08T00:23:02.718Z,92.39
2024-03-08T00:24:02.770Z,92.29
2024-03-08T00:25:02.709Z,92.29
2024-03-08T00:26:02.691Z,92.39
2024-03-08T00:27:02.751Z,92.29
2024-03-08T00:28:02.682Z,92.29
2024-03-08T00:29:02.693Z,92.29
2024-03-08T00:30:02.704Z,92.43
2024-03-08T00:31:02.659Z,92.33
2024-03-08T00:32:02.649Z,92.33
2024-03-08T00:33:02.692Z,92.43
2024-03-08T00:34:02.663Z,92.33
2024-03-08T00:35:02.610Z,92.43
2024-03-08T00:36:02.689Z,92.43
2024-03-08T00:37:02.590Z,92.22
2024-03-08T00:38:02.588Z,92.43
2024-03-08T00:39:02.656Z,92.54
2024-03-08T00:40:02.646Z,92.54
2024-03-08T00:41:02.567Z,92.33
2024-03-08T00:42:02.582Z,92.22
2024-03-08T00:43:03.870Z,92.33
2024-03-08T00:44:02.514Z,92.22
2024-03-08T00:45:02.780Z,92.33
2024-03-08T00:46:02.494Z,92.33
2024-03-08T00:47:02.516Z,92.12
2024-03-08T00:48:02.619Z,92.12
2024-03-08T00:49:02.526Z,92.12
2024-03-08T00:50:02.505Z,92.12
2024-03-08T00:51:02.551Z,92.22
2024-03-08T00:52:02.437Z,92.22
2024-03-08T00:53:02.423Z,92.22
2024-03-08T00:54:02.430Z,92.33
2024-03-08T00:55:02.452Z,92.43
2024-03-08T00:56:02.446Z,92.37
2024-03-08T00:57:02.486Z,92.47
2024-03-08T00:58:02.403Z,92.47
2024-03-08T00:59:02.350Z,92.47
2024-03-08T01:00:02.447Z,92.47
2024-03-08T01:01:02.427Z,92.58
2024-03-08T01:02:02.360Z,92.68
2024-03-08T01:03:02.446Z,92.79
2024-03-08T01:04:02.382Z,92.68
2024-03-08T01:05:02.348Z,92.58
2024-03-08T01:06:02.596Z,92.58
2024-03-08T01:07:02.304Z,92.58
2024-03-08T01:08:02.321Z,92.79
2024-03-08T01:09:02.336Z,92.68
2024-03-08T01:10:02.278Z,92.68
2024-03-08T01:11:02.288Z,92.68
2024-03-08T01:12:02.303Z,92.58
2024-03-08T01:13:02.249Z,92.58
2024-03-08T01:14:02.212Z,92.68
2024-03-08T01:15:02.273Z,92.58
2024-03-08T01:16:02.194Z,92.68
2024-03-08T01:17:02.291Z,92.68
2024-03-08T01:18:02.331Z,92.58
2024-03-08T01:19:02.243Z,92.58
2024-03-08T01:20:02.165Z,92.58
2024-03-08T01:21:02.210Z,92.68
2024-03-08T01:22:02.174Z,92.68
2024-03-08T01:23:02.153Z,92.72
2024-03-08T01:24:02.178Z,92.68
2024-03-08T01:25:02.130Z,92.62
2024-03-08T01:26:02.093Z,92.58
2024-03-08T01:27:02.157Z,92.58
2024-03-08T01:28:02.119Z,92.37
2024-03-08T01:29:02.066Z,92.47
2024-03-08T01:30:02.092Z,92.41
2024-03-08T01:31:02.060Z,92.31
2024-03-08T01:32:02.055Z,92.52
2024-03-08T01:33:02.129Z,92.62
2024-03-08T01:34:02.014Z,92.52
2024-03-08T01:35:02.022Z,92.62
2024-03-08T01:36:02.057Z,92.62
2024-03-08T01:37:02.966Z,92.72
2024-03-08T01:38:01.960Z,92.72
2024-03-08T01:39:02.029Z,92.72
2024-03-08T01:40:01.952Z,92.83
2024-03-08T01:41:01.951Z,92.72
2024-03-08T01:42:02.099Z,92.62
2024-03-08T01:43:01.926Z,92.52
2024-03-08T01:44:01.913Z,92.62
2024-03-08T01:45:02.022Z,92.41
2024-03-08T01:46:01.912Z,92.41
2024-03-08T01:47:01.927Z,92.41
2024-03-08T01:48:01.980Z,92.52
2024-03-08T01:49:02.288Z,92.52
2024-03-08T01:50:01.863Z,92.62
2024-03-08T01:51:01.867Z,92.62
2024-03-08T01:52:01.862Z,92.62
2024-03-08T01:53:01.830Z,92.83
2024-03-08T01:54:01.860Z,92.83
2024-03-08T01:55:01.817Z,92.93
2024-03-08T01:56:01.801Z,92.93
2024-03-08T01:57:01.909Z,92.83
2024-03-08T01:58:01.766Z,92.83
2024-03-08T01:59:02.053Z,92.83
2024-03-08T02:00:01.927Z,92.87
2024-03-08T02:01:01.890Z,93.08
2024-03-08T02:02:01.787Z,93.08
2024-03-08T02:03:01.777Z,93.08
2024-03-08T02:04:01.702Z,93.08
2024-03-08T02:05:01.741Z,93.18
2024-03-08T02:06:01.753Z,93.18
2024-03-08T02:07:01.696Z,93.29
2024-03-08T02:08:01.672Z,93.29
2024-03-08T02:09:01.713Z,93.18
2024-03-08T02:10:01.680Z,93.40
2024-03-08T02:11:01.657Z,93.50
2024-03-08T02:12:01.648Z,93.60
2024-03-08T02:13:01.621Z,93.50
2024-03-08T02:14:01.613Z,93.60
2024-03-08T02:15:01.700Z,93.60
2024-03-08T02:16:01.670Z,93.71
2024-03-08T02:17:01.590Z,93.60
2024-03-08T02:18:01.657Z,93.75
2024-03-08T02:19:01.600Z,93.85
2024-03-08T02:20:01.548Z,93.85
2024-03-08T02:21:01.567Z,93.96
2024-03-08T02:22:01.557Z,93.96
2024-03-08T02:23:01.528Z,94.06
2024-03-08T02:24:01.594Z,93.85
2024-03-08T02:25:01.501Z,94.06
2024-03-08T02:26:01.495Z,94.06
2024-03-08T02:27:01.611Z,93.96
2024-03-08T02:28:01.483Z,94.17
2024-03-08T02:29:01.511Z,93.96
2024-03-08T02:30:01.471Z,93.85
2024-03-08T02:31:01.448Z,93.85
2024-03-08T02:32:01.414Z,93.75
2024-03-08T02:33:01.512Z,93.85
2024-03-08T02:34:01.403Z,93.96
2024-03-08T02:35:01.654Z,93.96
2024-03-08T02:36:01.484Z,93.96
2024-03-08T02:37:01.383Z,93.85
2024-03-08T02:38:01.370Z,93.96
2024-03-08T02:39:01.429Z,93.96
2024-03-08T02:40:01.355Z,94.06
2024-03-08T02:41:01.324Z,94.06
2024-03-08T02:42:01.425Z,93.96
2024-03-08T02:43:01.327Z,93.85
2024-03-08T02:44:01.341Z,93.85
2024-03-08T02:45:01.461Z,93.85
2024-03-08T02:46:01.386Z,93.75
2024-03-08T02:47:01.326Z,93.65
2024-03-08T02:48:01.358Z,93.65
2024-03-08T02:49:01.322Z,93.65
2024-03-08T02:50:01.229Z,93.75
2024-03-08T02:51:01.421Z,93.65
2024-03-08T02:52:01.243Z,93.44
2024-03-08T02:53:01.278Z,93.54
2024-03-08T02:54:01.332Z,93.54
2024-03-08T02:55:01.245Z,93.69
2024-03-08T02:56:01.170Z,93.69
2024-03-08T02:57:01.259Z,93.69
2024-03-08T02:58:01.252Z,93.59
2024-03-08T02:59:01.242Z,93.59
2024-03-08T03:00:01.256Z,93.59
2024-03-08T03:01:01.237Z,93.59
2024-03-08T03:02:01.218Z,93.54
2024-03-08T03:03:01.271Z,93.44
2024-03-08T03:04:01.245Z,93.33
2024-03-08T03:05:01.223Z,93.37
2024-03-08T03:06:01.186Z,93.37
2024-03-08T03:07:01.177Z,93.37
2024-03-08T03:08:01.202Z,93.27
2024-03-08T03:09:01.080Z,93.37
2024-03-08T03:10:01.154Z,93.37
2024-03-08T03:11:01.123Z,93.37
2024-03-08T03:12:01.094Z,93.48
2024-03-08T03:13:01.015Z,93.37
2024-03-08T03:14:01.054Z,93.37
2024-03-08T03:15:01.111Z,93.37
2024-03-08T03:16:00.959Z,93.48
2024-03-08T03:17:00.972Z,93.48
2024-03-08T03:18:01.085Z,93.69
2024-03-08T03:19:00.958Z,93.69
2024-03-08T03:20:01.134Z,93.90
2024-03-08T03:21:00.997Z,93.90
2024-03-08T03:22:00.947Z,93.90
2024-03-08T03:23:00.924Z,93.73
2024-03-08T03:24:00.950Z,93.73
2024-03-08T03:25:00.899Z,93.73
2024-03-08T03:26:00.871Z,93.84
2024-03-08T03:27:00.937Z,93.94
2024-03-08T03:28:00.862Z,93.94
2024-03-08T03:29:00.866Z,93.84
2024-03-08T03:30:00.889Z,93.73
2024-03-08T03:31:00.828Z,93.84
2024-03-08T03:32:00.809Z,93.84
2024-03-08T03:33:00.886Z,93.73
2024-03-08T03:34:00.807Z,93.63
2024-03-08T03:35:00.787Z,93.63
2024-03-08T03:36:00.842Z,93.63
2024-03-08T03:37:00.765Z,93.63
2024-03-08T03:38:00.813Z,93.63
2024-03-08T03:39:00.849Z,93.63
2024-03-08T03:40:00.705Z,93.63
2024-03-08T03:41:00.752Z,93.63
2024-03-08T03:42:00.716Z,93.63
2024-03-08T03:43:00.787Z,93.52
2024-03-08T03:44:00.743Z,93.63
2024-03-08T03:45:00.765Z,93.63
2024-03-08T03:46:00.671Z,93.63
2024-03-08T03:47:00.658Z,93.63
2024-03-08T03:48:00.786Z,93.84
2024-03-08T03:49:00.636Z,93.84
2024-03-08T03:50:00.664Z,93.84
2024-03-08T03:51:00.683Z,93.84
2024-03-08T03:52:00.639Z,93.84
2024-03-08T03:53:00.632Z,93.98
2024-03-08T03:54:00.608Z,94.09
2024-03-08T03:55:00.574Z,93.98
2024-03-08T03:56:00.555Z,93.98
2024-03-08T03:57:00.642Z,94.09
2024-03-08T03:58:00.813Z,94.09
2024-03-08T03:59:00.554Z,94.29
2024-03-08T04:00:00.684Z,94.29
2024-03-08T04:01:00.578Z,94.40
2024-03-08T04:02:00.569Z,94.29
2024-03-08T04:03:00.705Z,94.29
2024-03-08T04:04:00.479Z,94.29
2024-03-08T04:05:00.504Z,94.29
2024-03-08T04:06:00.525Z,94.29
2024-03-08T04:07:00.480Z,94.29
2024-03-08T04:08:00.474Z,94.29
2024-03-08T04:09:00.569Z,94.29
2024-03-08T04:10:00.460Z,94.40
2024-03-08T04:11:00.592Z,94.50
2024-03-08T04:12:00.543Z,94.50
2024-03-08T04:13:00.392Z,94.40
2024-03-08T04:14:00.400Z,94.40
2024-03-08T04:15:00.453Z,94.40
2024-03-08T04:16:00.417Z,94.50
2024-03-08T04:17:00.384Z,94.40
2024-03-08T04:18:00.402Z,94.40
2024-03-08T04:19:00.407Z,94.50
2024-03-08T04:20:00.367Z,94.50
2024-03-08T04:21:00.401Z,94.40
2024-03-08T04:22:00.307Z,94.50
2024-03-08T04:23:00.313Z,94.50
2024-03-08T04:24:00.317Z,94.50
2024-03-08T04:25:00.341Z,94.40
2024-03-08T04:26:00.257Z,94.44
2024-03-08T04:27:00.390Z,94.55
2024-03-08T04:28:00.269Z,94.55
2024-03-08T04:29:00.220Z,94.55
2024-03-08T04:30:00.345Z,94.76
2024-03-08T04:31:00.218Z,94.76
2024-03-08T04:32:00.202Z,94.86
2024-03-08T04:33:00.281Z,95.07
2024-03-08T04:34:00.276Z,94.96
2024-03-08T04:35:00.203Z,94.96
2024-03-08T04:36:00.234Z,94.96
2024-03-08T04:37:00.138Z,94.86
2024-03-08T04:38:00.180Z,94.96
2024-03-08T04:39:00.170Z,94.96
2024-03-08T04:40:00.392Z,95.07
2024-03-08T04:41:00.144Z,95.07
2024-03-08T04:42:01.866Z,95.07
2024-03-08T04:43:00.100Z,95.17
2024-03-08T04:44:00.172Z,95.28
2024-03-08T04:45:00.221Z,95.17
2024-03-08T04:46:00.080Z,95.17
2024-03-08T04:47:00.039Z,95.28
2024-03-08T04:48:00.094Z,95.28
2024-03-08T04:49:00.161Z,95.28
2024-03-08T04:50:00.044Z,95.28
2024-03-08T04:51:00.081Z,95.49
2024-03-08T04:51:59.999Z,95.49
2024-03-08T04:53:00.001Z,95.49
2024-03-08T04:54:00.011Z,95.38
2024-03-08T04:54:59.961Z,95.38
2024-03-08T04:55:59.986Z,95.38
2024-03-08T04:57:00.029Z,95.38
2024-03-08T04:57:59.946Z,95.28
2024-03-08T04:58:59.925Z,95.28
2024-03-08T05:00:00.022Z,95.32
2024-03-08T05:00:59.959Z,95.32
2024-03-08T05:01:59.890Z,95.43
2024-03-08T05:02:59.936Z,95.53
2024-03-08T05:04:04.192Z,95.64
2024-03-08T05:04:59.895Z,95.74
2024-03-08T05:05:59.879Z,95.74
2024-03-08T05:06:59.885Z,95.74
2024-03-08T05:07:59.841Z,95.84
2024-03-08T05:08:59.878Z,95.64
2024-03-08T05:09:59.845Z,95.74
2024-03-08T05:10:59.913Z,95.74
2024-03-08T05:11:59.884Z,95.84
2024-03-08T05:12:59.722Z,95.84
2024-03-08T05:13:59.796Z,95.95
2024-03-08T05:14:59.820Z,95.84
2024-03-08T05:15:59.721Z,95.74
2024-03-08T05:16:59.771Z,95.64
2024-03-08T05:17:59.888Z,95.64
2024-03-08T05:18:59.793Z,95.74
2024-03-08T05:19:59.677Z,95.74
2024-03-08T05:20:59.738Z,95.74
2024-03-08T05:21:59.656Z,95.74
2024-03-08T05:22:59.646Z,95.84
2024-03-08T05:23:59.659Z,95.84
2024-03-08T05:24:59.616Z,95.84
2024-03-08T05:25:59.653Z,95.84
2024-03-08T05:26:59.685Z,95.84
2024-03-08T05:27:59.605Z,95.95
2024-03-08T05:28:59.625Z,96.05
2024-03-08T05:29:59.614Z,96.05
2024-03-08T05:30:59.571Z,96.26
2024-03-08T05:31:59.737Z,96.26
2024-03-08T05:32:59.571Z,96.26
2024-03-08T05:33:59.630Z,96.26
2024-03-08T05:34:59.555Z,96.26
2024-03-08T05:35:59.550Z,96.26
2024-03-08T05:36:59.611Z,96.16
2024-03-08T05:37:59.509Z,96.16
2024-03-08T05:38:59.564Z,96.16
2024-03-08T05:39:59.468Z,96.16
2024-03-08T05:40:59.503Z,96.37
2024-03-08T05:41:59.537Z,96.26
2024-03-08T05:42:59.438Z,96.16
2024-03-08T05:43:59.439Z,96.05
2024-03-08T05:44:59.480Z,96.05
2024-03-08T05:45:59.412Z,96.05
2024-03-08T05:46:59.461Z,95.95
2024-03-08T05:47:59.464Z,96.16
2024-03-08T05:48:59.460Z,96.16
2024-03-08T05:49:59.392Z,95.95
2024-03-08T05:50:59.364Z,95.95
2024-03-08T05:51:59.348Z,95.95
2024-03-08T05:52:59.348Z,95.95
2024-03-08T05:53:59.362Z,95.95
2024-03-08T05:54:59.308Z,95.95
2024-03-08T05:55:59.296Z,95.95
2024-03-08T05:56:59.308Z,95.95
2024-03-08T05:57:59.284Z,96.16
2024-03-08T05:58:59.272Z,96.16
2024-03-08T05:59:59.299Z,96.16
2024-03-08T06:00:59.265Z,96.05
2024-03-08T06:01:59.287Z,96.16
2024-03-08T06:02:59.272Z,96.05
2024-03-08T06:03:59.243Z,95.95
2024-03-08T06:04:59.202Z,95.95
2024-03-08T06:05:59.252Z,95.95
2024-03-08T06:06:59.217Z,95.95
2024-03-08T06:07:59.178Z,95.95
2024-03-08T06:08:59.207Z,95.95
2024-03-08T06:09:59.205Z,95.84
2024-03-08T06:10:59.167Z,95.74
2024-03-08T06:12:07.159Z,95.74
2024-03-08T06:12:59.129Z,95.74
2024-03-08T06:13:59.127Z,95.53
2024-03-08T06:14:59.140Z,95.53
2024-03-08T06:15:59.110Z,95.32
2024-03-08T06:16:59.175Z,95.32
2024-03-08T06:17:59.118Z,95.32
2024-03-08T06:18:59.153Z,95.11
2024-03-08T06:19:59.100Z,95.01
2024-03-08T06:20:59.066Z,94.96
2024-03-08T06:21:59.108Z,95.07
2024-03-08T06:22:59.021Z,95.17
2024-03-08T06:23:59.416Z,95.28
2024-03-08T06:24:59.085Z,95.28
2024-03-08T06:25:59.021Z,95.17
2024-03-08T06:26:59.122Z,94.82
2024-03-08T06:27:59.001Z,94.82
2024-03-08T06:28:59.330Z,94.50
2024-03-08T06:29:58.986Z,94.50
2024-03-08T06:30:58.971Z,94.40
2024-03-08T06:31:58.963Z,94.04
2024-03-08T06:32:58.979Z,93.73
2024-03-08T06:33:59.327Z,93.52
2024-03-08T06:34:58.905Z,93.31
2024-03-08T06:35:59.011Z,93.10
2024-03-08T06:36:58.909Z,93.21
2024-03-08T06:37:58.868Z,93.21
2024-03-08T06:38:58.926Z,93.41
2024-03-08T06:39:58.876Z,93.37
2024-03-08T06:40:58.886Z,93.48
2024-03-08T06:41:58.867Z,93.37
2024-03-08T06:42:59.088Z,93.37
2024-03-08T06:43:58.804Z,93.27
2024-03-08T06:44:58.866Z,93.27
2024-03-08T06:45:58.807Z,93.06
2024-03-08T06:47:00.645Z,92.96
2024-03-08T06:47:58.873Z,92.81
2024-03-08T06:48:58.822Z,92.60
2024-03-08T06:49:58.761Z,92.50
2024-03-08T06:50:58.820Z,92.29
2024-03-08T06:51:58.715Z,92.18
2024-03-08T06:52:58.750Z,92.40
2024-03-08T06:53:58.761Z,92.35
2024-03-08T06:54:58.705Z,91.72
2024-03-08T06:55:58.701Z,91.62
2024-03-08T06:56:58.703Z,91.72
2024-03-08T06:57:58.718Z,91.72
2024-03-08T06:58:58.692Z,91.93
2024-03-08T06:59:58.710Z,91.72
2024-03-08T07:00:58.669Z,91.52
2024-03-08T07:01:58.639Z,91.37
2024-03-08T07:02:58.656Z,91.06
2024-03-08T07:03:58.611Z,90.85
2024-03-08T07:04:58.639Z,90.64
2024-03-08T07:05:58.622Z,90.85
2024-03-08T07:06:58.600Z,90.85
2024-03-08T07:07:58.621Z,90.54
2024-03-08T07:08:58.676Z,90.64
2024-03-08T07:09:58.560Z,90.54
2024-03-08T07:10:58.583Z,90.44
2024-03-08T07:11:58.571Z,90.33
2024-03-08T07:12:58.554Z,89.60
2024-03-08T07:13:58.532Z,89.66
2024-03-08T07:14:58.561Z,89.76
2024-03-08T07:15:58.617Z,89.66
2024-03-08T07:16:58.532Z,89.45
2024-03-08T07:17:58.515Z,89.35
2024-03-08T07:18:58.585Z,89.04
2024-03-08T07:19:58.457Z,88.73
2024-03-08T07:20:58.637Z,88.31
2024-03-08T07:21:58.506Z,88.37
2024-03-08T07:22:58.416Z,88.31
2024-03-08T07:23:58.474Z,88.62
2024-03-08T07:24:58.417Z,88.62
2024-03-08T07:25:58.383Z,88.52
2024-03-08T07:26:58.426Z,88.68
2024-03-08T07:27:58.384Z,88.79
2024-03-08T07:28:58.361Z,88.48
2024-03-08T07:30:58.346Z,88.48
2024-03-08T07:31:58.336Z,88.37
2024-03-08T07:32:58.387Z,88.17
2024-03-08T07:33:58.344Z,87.92
2024-03-08T07:34:58.313Z,87.92
2024-03-08T07:35:58.324Z,87.50
2024-03-08T07:36:58.357Z,87.54
2024-03-08T07:37:58.261Z,87.85
2024-03-08T07:38:58.273Z,88.02
2024-03-08T07:39:58.283Z,87.81
2024-03-08T07:40:58.277Z,87.50
2024-03-08T07:41:58.252Z,87.50
2024-03-08T07:42:58.199Z,87.29
2024-03-08T07:43:58.225Z,86.98
2024-03-08T07:44:58.288Z,86.88
2024-03-08T07:45:58.207Z,86.77
2024-03-08T07:46:58.484Z,87.29
2024-03-08T07:47:58.225Z,87.65
2024-03-08T07:48:58.193Z,87.81
2024-03-08T07:49:59.988Z,87.71
2024-03-08T07:50:58.187Z,87.71
2024-03-08T07:51:58.116Z,87.60
2024-03-08T07:52:58.123Z,86.88
2024-03-08T07:54:58.133Z,87.08
2024-03-08T07:55:58.089Z,87.15
2024-03-08T07:56:58.088Z,87.46
2024-03-08T07:57:58.074Z,87.25
2024-03-08T07:58:58.100Z,86.63
2024-03-08T07:59:58.059Z,86.07
2024-03-08T08:00:58.024Z,85.34
2024-03-08T08:01:58.048Z,85.24
2024-03-08T08:02:58.064Z,85.13
2024-03-08T08:03:58.022Z,85.24
2024-03-08T08:04:58.024Z,85.34
2024-03-08T08:05:57.999Z,84.72
2024-03-08T08:06:57.952Z,84.92
2024-03-08T08:07:58.043Z,84.61
2024-03-08T08:08:57.970Z,84.92
2024-03-08T08:09:58.026Z,84.61
2024-03-08T08:10:58.039Z,84.72
2024-03-08T08:11:57.924Z,84.72
2024-03-08T08:12:57.911Z,85.13
2024-03-08T08:13:57.971Z,84.82
2024-03-08T08:14:57.886Z,84.61
2024-03-08T08:15:57.920Z,84.61
2024-03-08T08:16:57.888Z,84.61
2024-03-08T08:17:57.930Z,84.72
2024-03-08T08:18:57.873Z,84.30
2024-03-08T08:19:57.897Z,84.16
2024-03-08T08:20:57.836Z,83.95
2024-03-08T08:21:57.850Z,84.05
2024-03-08T08:22:57.822Z,83.74
2024-03-08T08:23:57.796Z,83.64
2024-03-08T08:24:57.811Z,83.33
2024-03-08T08:25:57.875Z,83.33
2024-03-08T08:26:57.807Z,83.84
2024-03-08T08:27:57.766Z,83.22
2024-03-08T08:28:57.807Z,83.01
2024-03-08T08:29:57.757Z,83.64
2024-03-08T08:30:57.723Z,83.12
2024-03-08T08:31:57.775Z,82.87
2024-03-08T08:32:57.744Z,83.22
2024-03-08T08:33:57.719Z,83.64
2024-03-08T08:34:57.670Z,83.74
2024-03-08T08:35:57.699Z,84.33
2024-03-08T08:36:57.688Z,83.50
2024-03-08T08:37:57.686Z,82.77
2024-03-08T08:38:57.654Z,83.18
2024-03-08T08:39:57.657Z,83.08
2024-03-08T08:40:57.756Z,82.25
2024-03-08T08:41:57.714Z,82.77
2024-03-08T08:42:57.618Z,82.98
2024-03-08T08:44:03.747Z,82.81
2024-03-08T08:44:58.343Z,83.53
2024-03-08T08:45:57.598Z,83.70
2024-03-08T08:47:03.010Z,84.01
2024-03-08T08:47:57.639Z,83.50
2024-03-08T08:48:57.591Z,83.15
2024-03-08T08:49:57.550Z,83.25
2024-03-08T08:50:57.532Z,82.42
2024-03-08T08:52:01.084Z,82.32
2024-03-08T08:52:58.349Z,82.11
2024-03-08T08:53:57.513Z,82.15
2024-03-08T08:54:57.572Z,82.67
2024-03-08T08:55:57.552Z,82.46
2024-03-08T08:56:57.465Z,82.15
2024-03-08T08:57:57.811Z,82.35
2024-03-08T08:58:57.499Z,82.70
2024-03-08T08:59:57.482Z,83.12
2024-03-08T09:00:57.499Z,83.01
2024-03-08T09:01:57.487Z,83.08
2024-03-08T09:02:57.409Z,82.98
2024-03-08T09:03:57.376Z,82.87
2024-03-08T09:04:57.604Z,82.94
2024-03-08T09:05:57.394Z,82.32
2024-03-08T09:06:57.399Z,81.90
2024-03-08T09:07:57.602Z,81.49
2024-03-08T09:08:57.354Z,82.01
2024-03-08T09:09:57.398Z,81.59
2024-03-08T09:10:57.452Z,80.93
2024-03-08T09:11:57.445Z,80.83
2024-03-08T09:12:57.326Z,81.56
2024-03-08T09:13:57.355Z,81.24
2024-03-08T09:14:57.263Z,81.87
2024-03-08T09:15:57.279Z,81.76
2024-03-08T09:16:57.318Z,82.18
2024-03-08T09:17:57.458Z,81.76
2024-03-08T09:18:57.302Z,81.45
2024-03-08T09:19:57.301Z,81.14
2024-03-08T09:20:57.242Z,80.62
2024-03-08T09:21:57.276Z,80.73
2024-03-08T09:22:57.305Z,81.04
2024-03-08T09:23:57.194Z,81.24
2024-03-08T09:24:57.251Z,81.24
2024-03-08T09:25:57.232Z,81.04
2024-03-08T09:26:57.166Z,81.04
2024-03-08T09:27:57.148Z,81.04
2024-03-08T09:28:57.354Z,81.14
2024-03-08T09:29:57.145Z,81.04
2024-03-08T09:31:00.314Z,81.62
2024-03-08T09:31:57.160Z,81.20
2024-03-08T09:32:59.348Z,81.30
2024-03-08T09:33:57.077Z,81.20
2024-03-08T09:34:57.171Z,80.37
2024-03-08T09:35:57.101Z,80.27
2024-03-08T09:36:57.108Z,80.47
2024-03-08T09:37:57.119Z,80.16
2024-03-08T09:38:57.068Z,80.16
2024-03-08T09:39:57.049Z,80.47
2024-03-08T09:40:57.133Z,80.89
2024-03-08T09:41:57.076Z,80.68
2024-03-08T09:42:57.013Z,80.99
2024-03-08T09:43:57.286Z,80.79
2024-03-08T09:44:56.982Z,80.37
2024-03-08T09:45:56.965Z,80.47
2024-03-08T09:46:57.080Z,80.47
2024-03-08T09:47:57.029Z,80.58
2024-03-08T09:48:56.975Z,80.44
2024-03-08T09:49:57.028Z,79.71
2024-03-08T09:50:56.943Z,80.37
2024-03-08T09:51:56.896Z,80.68
2024-03-08T09:52:56.941Z,80.27
2024-03-08T09:53:56.876Z,80.37
2024-03-08T09:54:56.878Z,80.27
2024-03-08T09:55:56.960Z,80.33
2024-03-08T09:56:56.872Z,79.85
2024-03-08T09:57:56.840Z,80.02
2024-03-08T09:58:56.855Z,79.71
2024-03-08T09:59:56.848Z,80.23
2024-03-08T10:00:56.821Z,80.09
2024-03-08T10:01:56.835Z,79.99
2024-03-08T10:02:56.804Z,79.99
2024-03-08T10:03:56.787Z,79.37
2024-03-08T10:04:56.821Z,78.85
2024-03-08T10:05:56.798Z,78.92
2024-03-08T10:06:56.755Z,78.61
2024-03-08T10:07:56.752Z,78.50
2024-03-08T10:08:56.736Z,78.61
2024-03-08T10:09:56.757Z,78.81
2024-03-08T10:10:56.828Z,79.02
2024-03-08T10:11:56.712Z,78.92
2024-03-08T10:12:56.735Z,79.60
2024-03-08T10:13:56.785Z,79.60
2024-03-08T10:14:56.707Z,78.99
2024-03-08T10:15:56.714Z,78.53
2024-03-08T10:16:56.705Z,78.02
2024-03-08T10:17:56.678Z,77.60
2024-03-08T10:18:56.700Z,77.50
2024-03-08T10:19:56.627Z,77.50
2024-03-08T10:20:56.646Z,78.12
2024-03-08T10:21:56.654Z,77.95
2024-03-08T10:23:06.521Z,77.95
2024-03-08T10:23:56.608Z,77.84
2024-03-08T10:24:56.574Z,77.22
2024-03-08T10:25:56.633Z,77.53
2024-03-08T10:26:56.579Z,77.43
2024-03-08T10:27:56.552Z,77.64
2024-03-08T10:28:56.673Z,78.26
2024-03-08T10:29:56.570Z,78.05
2024-03-08T10:30:56.511Z,77.95
2024-03-08T10:31:56.541Z,78.30
2024-03-08T10:32:56.562Z,78.09
2024-03-08T10:33:56.507Z,78.19
2024-03-08T10:34:56.555Z,78.30
2024-03-08T10:35:56.448Z,78.99
2024-03-08T10:36:56.474Z,79.30
2024-03-08T10:37:56.584Z,79.09
2024-03-08T10:38:56.447Z,79.09
2024-03-08T10:39:56.500Z,78.26
2024-03-08T10:40:56.450Z,77.74
2024-03-08T10:41:56.433Z,77.64
2024-03-08T10:42:56.428Z,78.78
2024-03-08T10:43:56.456Z,78.67
2024-03-08T10:44:56.376Z,78.33
2024-03-08T10:45:56.351Z,78.43
2024-03-08T10:46:56.562Z,77.81
2024-03-08T10:47:56.437Z,77.87
2024-03-08T10:48:56.344Z,77.56
2024-03-08T10:49:56.671Z,77.26
2024-03-08T10:50:56.336Z,77.22
2024-03-08T10:51:56.522Z,76.91
2024-03-08T10:52:56.484Z,75.88
2024-03-08T10:53:56.306Z,74.84
2024-03-08T10:54:56.296Z,75.36
2024-03-08T10:55:56.393Z,75.57
2024-03-08T10:56:56.378Z,75.26
2024-03-08T10:57:56.302Z,74.95
2024-03-08T10:58:56.389Z,75.15
2024-03-08T10:59:58.454Z,75.67
2024-03-08T11:00:56.280Z,76.46
2024-03-08T11:01:56.390Z,75.78
2024-03-08T11:02:56.288Z,75.22
2024-03-08T11:03:56.248Z,75.12
2024-03-08T11:04:56.367Z,75.43
2024-03-08T11:05:56.235Z,75.53
2024-03-08T11:06:56.190Z,75.70
2024-03-08T11:07:56.372Z,74.77
2024-03-08T11:08:56.155Z,74.36
2024-03-08T11:09:56.160Z,73.64
2024-03-08T11:10:56.386Z,73.74
2024-03-08T11:11:56.218Z,74.40
2024-03-08T11:12:56.134Z,74.40
2024-03-08T11:13:56.152Z,74.15
2024-03-08T11:14:56.193Z,74.40
2024-03-08T11:15:56.152Z,74.40
2024-03-08T11:16:56.154Z,74.81
2024-03-08T11:17:56.129Z,74.40
2024-03-08T11:18:56.035Z,75.32
2024-03-08T11:19:56.071Z,75.29
2024-03-08T11:20:56.039Z,74.26
2024-03-08T11:21:56.048Z,73.74
2024-03-08T11:22:56.119Z,74.15
2024-03-08T11:23:55.987Z,74.57
2024-03-08T11:24:56.055Z,74.67
2024-03-08T11:25:56.108Z,73.95
2024-03-08T11:26:55.994Z,74.57
2024-03-08T11:27:55.941Z,74.26
2024-03-08T11:28:56.016Z,75.29
2024-03-08T11:29:55.934Z,75.29
2024-03-08T11:30:55.974Z,74.98
2024-03-08T11:31:56.052Z,74.98
2024-03-08T11:32:55.967Z,75.09
2024-03-08T11:33:55.909Z,74.98
2024-03-08T11:34:55.921Z,74.15
2024-03-08T11:35:55.887Z,74.88
2024-03-08T11:36:55.844Z,74.40
2024-03-08T11:37:55.940Z,74.98
2024-03-08T11:38:55.868Z,75.29
2024-03-08T11:39:55.869Z,74.36
2024-03-08T11:40:55.877Z,74.36
2024-03-08T11:41:55.801Z,74.26
2024-03-08T11:42:55.809Z,74.02
2024-03-08T11:43:55.872Z,73.81
2024-03-08T11:44:55.791Z,73.91
2024-03-08T11:45:55.769Z,73.50
2024-03-08T11:46:55.923Z,73.77
2024-03-08T11:47:58.644Z,74.71
2024-03-08T11:48:55.740Z,74.46
2024-03-08T11:49:55.807Z,73.43
2024-03-08T11:50:55.724Z,72.81
2024-03-08T11:51:55.727Z,72.71
2024-03-08T11:52:55.798Z,72.71
2024-03-08T11:53:55.688Z,72.19
2024-03-08T11:54:55.728Z,72.92
2024-03-08T11:55:55.696Z,72.19
2024-03-08T11:56:55.659Z,73.40
2024-03-08T11:57:55.669Z,72.33
2024-03-08T11:58:55.673Z,71.10
2024-03-08T11:59:57.617Z,71.75
2024-03-08T12:00:55.641Z,72.03
2024-03-08T12:01:55.864Z,72.33
2024-03-08T12:02:55.651Z,71.89
2024-03-08T12:03:55.584Z,70.86
2024-03-08T12:04:55.666Z,70.86
2024-03-08T12:05:57.367Z,71.27
2024-03-08T12:06:55.589Z,70.96
2024-03-08T12:07:55.606Z,71.27
2024-03-08T12:08:55.557Z,70.76
2024-03-08T12:09:55.520Z,71.10
2024-03-08T12:10:55.580Z,70.72
2024-03-08T12:11:55.550Z,71.55
2024-03-08T12:12:55.476Z,72.27
2024-03-08T12:13:55.647Z,73.50
2024-03-08T12:14:55.500Z,73.50
2024-03-08T12:15:55.466Z,73.30
2024-03-08T12:16:55.530Z,73.19
2024-03-08T12:17:55.470Z,72.33
2024-03-08T12:18:55.451Z,72.33
2024-03-08T12:19:55.446Z,71.82
2024-03-08T12:20:55.405Z,72.64
2024-03-08T12:21:55.396Z,72.54
2024-03-08T12:22:55.453Z,72.71
2024-03-08T12:23:56.973Z,72.61
2024-03-08T12:24:55.389Z,70.55
2024-03-08T12:25:55.390Z,70.89
2024-03-08T12:26:55.321Z,71.92
2024-03-08T12:27:55.341Z,70.58
2024-03-08T12:28:55.328Z,71.99
2024-03-08T12:29:55.314Z,71.58
2024-03-08T12:30:55.415Z,70.96
2024-03-08T12:31:55.657Z,70.72
2024-03-08T12:32:55.339Z,70.52
2024-03-08T12:33:57.434Z,70.93
2024-03-08T12:34:55.453Z,70.10
2024-03-08T12:35:55.884Z,70.31
2024-03-08T12:36:55.570Z,70.42
2024-03-08T12:37:55.258Z,70.62
2024-03-08T12:38:55.257Z,70.52
2024-03-08T12:39:55.197Z,71.14
2024-03-08T12:40:55.249Z,70.72
2024-03-08T12:41:55.186Z,71.14
2024-03-08T12:42:55.216Z,69.38
2024-03-08T12:43:55.199Z,70.31
2024-03-08T12:44:55.225Z,70.52
2024-03-08T12:45:55.112Z,70.62
2024-03-08T12:46:55.760Z,69.59
2024-03-08T12:47:55.158Z,71.03
2024-03-08T12:48:55.153Z,70.83
2024-03-08T12:49:55.158Z,70.42
2024-03-08T12:50:55.088Z,71.44
2024-03-08T12:51:55.060Z,71.34
2024-03-08T12:52:55.149Z,72.68
2024-03-08T12:53:55.071Z,72.75